Time;durP1;ratioP1;P1;durP2;ratioP2;P2;SDS_P1;SDS_P2;PMS_P1;PMS_P2;Temp;Humidity;BMP_temperature;BMP_pressure;BME280_temperature;BME280_humidity;BME280_pressure;Samples;Min_cycle;Max_cycle;Signal;HPM_P1;HPM_P2
2021/07/11 00:01:21;;;;;;;14.48;13.02;;;22.90;70.80;;;;;;5036190;28;20669;-79
2021/07/11 00:03:48;;;;;;;15.02;13.43;;;22.90;70.90;;;;;;5035960;28;20676;-79
2021/07/11 00:06:15;;;;;;;15.02;13.50;;;22.90;70.80;;;;;;5051925;28;20269;-79
2021/07/11 00:08:40;;;;;;;14.30;12.80;;;22.90;70.80;;;;;;5052378;28;20192;-77
2021/07/11 00:11:07;;;;;;;14.60;13.10;;;22.90;70.70;;;;;;5054692;28;20158;-77
2021/07/11 00:13:36;;;;;;;15.20;13.55;;;22.90;70.80;;;;;;5052494;28;20178;-77
2021/07/11 00:16:04;;;;;;;14.38;12.88;;;22.90;70.90;;;;;;5052512;28;20190;-78
2021/07/11 00:18:32;;;;;;;16.10;12.95;;;22.90;70.80;;;;;;5052739;28;20174;-78
2021/07/11 00:21:00;;;;;;;13.88;12.48;;;22.90;70.80;;;;;;5052729;28;20299;-79
2021/07/11 00:23:28;;;;;;;15.07;13.45;;;22.90;70.90;;;;;;5055991;28;20178;-78
2021/07/11 00:25:55;;;;;;;14.50;13.10;;;22.90;70.90;;;;;;5023305;28;20182;-78
2021/07/11 00:28:23;;;;;;;14.98;13.38;;;22.90;70.90;;;;;;5056107;28;20202;-78
2021/07/11 00:30:51;;;;;;;14.73;13.18;;;22.80;70.80;;;;;;5056239;28;20640;-79
2021/07/11 00:33:18;;;;;;;14.20;12.70;;;22.90;70.90;;;;;;5056058;28;20182;-78
2021/07/11 00:35:45;;;;;;;14.48;13.02;;;22.90;70.90;;;;;;5055994;28;20231;-79
2021/07/11 00:38:13;;;;;;;14.07;12.68;;;22.90;70.90;;;;;;5039520;28;20181;-78
2021/07/11 00:40:40;;;;;;;13.70;12.32;;;22.90;70.90;;;;;;5054721;28;20676;-78
2021/07/11 00:43:08;;;;;;;13.60;12.30;;;22.90;70.80;;;;;;5055007;28;20281;-77
2021/07/11 00:45:35;;;;;;;13.88;12.48;;;22.90;70.80;;;;;;5054184;28;20657;-79
2021/07/11 00:48:03;;;;;;;14.32;12.93;;;22.90;70.90;;;;;;5020135;28;20287;-78
2021/07/11 00:50:29;;;;;;;14.70;13.20;;;22.90;70.80;;;;;;5035359;28;20758;-78
2021/07/11 00:52:56;;;;;;;13.77;12.48;;;22.90;70.80;;;;;;5052791;28;20158;-79
2021/07/11 00:55:23;;;;;;;14.50;13.00;;;22.90;70.90;;;;;;5072547;28;20216;-78
2021/07/11 00:57:50;;;;;;;13.80;12.32;;;22.90;70.90;;;;;;5092978;28;20188;-79
2021/07/11 01:00:16;;;;;;;14.43;12.85;;;22.90;70.90;;;;;;5092621;28;20237;-78
2021/07/11 01:03:05;;;;;;;14.15;12.75;;;22.90;70.90;;;;;;5093806;28;20192;-78
2021/07/11 01:05:31;;;;;;;14.00;12.60;;;22.90;70.90;;;;;;5092888;28;20403;-79
2021/07/11 01:08:09;;;;;;;14.10;12.68;;;22.80;70.90;;;;;;5093868;28;20152;-78
2021/07/11 01:10:44;;;;;;;15.20;13.70;;;22.80;70.90;;;;;;5093919;28;20153;-79
2021/07/11 01:13:13;;;;;;;13.80;12.43;;;22.90;71.00;;;;;;5093906;28;20188;-78
2021/07/11 01:15:40;;;;;;;14.43;12.93;;;22.80;70.90;;;;;;5093742;28;20627;-78
2021/07/11 01:18:07;;;;;;;14.25;12.85;;;22.80;71.00;;;;;;5094066;28;20615;-78
2021/07/11 01:20:47;;;;;;;14.60;13.10;;;22.80;71.00;;;;;;5093515;28;20160;-78
2021/07/11 01:23:33;;;;;;;14.82;13.10;;;22.80;71.10;;;;;;5093407;28;20153;-78
2021/07/11 01:25:59;;;;;;;13.73;12.32;;;22.80;71.00;;;;;;5093538;28;20152;-78
2021/07/11 01:28:25;;;;;;;14.13;12.63;;;22.80;71.00;;;;;;5093384;28;20159;-78
2021/07/11 01:30:52;;;;;;;13.93;12.45;;;22.80;71.00;;;;;;5093337;28;20235;-79
2021/07/11 01:33:20;;;;;;;14.23;12.73;;;22.80;71.00;;;;;;5092187;28;20169;-78
2021/07/11 01:35:46;;;;;;;13.73;12.32;;;22.80;71.00;;;;;;5092152;28;20239;-79
2021/07/11 01:38:12;;;;;;;14.40;12.93;;;22.80;71.00;;;;;;5092041;28;20169;-77
2021/07/11 01:40:38;;;;;;;14.15;12.70;;;22.80;71.00;;;;;;5093204;28;20232;-79
2021/07/11 01:43:04;;;;;;;13.90;12.50;;;22.80;71.10;;;;;;5109053;28;20243;-79
2021/07/11 01:45:30;;;;;;;13.77;12.38;;;22.80;71.00;;;;;;5075194;28;20536;-78
2021/07/11 01:47:56;;;;;;;13.80;12.40;;;22.80;71.00;;;;;;5092547;28;20599;-78
2021/07/11 01:50:23;;;;;;;13.98;12.57;;;22.80;71.00;;;;;;5092286;28;20161;-79
2021/07/11 01:52:51;;;;;;;13.73;12.32;;;22.80;71.00;;;;;;5058179;28;20186;-79
2021/07/11 01:55:16;;;;;;;14.13;12.73;;;22.80;71.10;;;;;;5090840;28;20363;-78
2021/07/11 01:57:44;;;;;;;14.00;12.52;;;22.80;71.20;;;;;;5109030;28;20249;-78
2021/07/11 02:00:13;;;;;;;13.88;12.48;;;22.80;71.20;;;;;;5090914;28;20263;-78
2021/07/11 02:02:41;;;;;;;14.25;12.80;;;22.80;71.10;;;;;;5074740;28;20204;-79
2021/07/11 02:05:09;;;;;;;13.88;12.48;;;22.80;71.20;;;;;;5074737;28;20192;-78
2021/07/11 02:07:36;;;;;;;13.80;12.40;;;22.80;71.10;;;;;;5093003;28;20153;-78
2021/07/11 02:10:04;;;;;;;14.10;12.60;;;22.80;71.10;;;;;;5093076;28;20161;-78
2021/07/11 02:12:31;;;;;;;14.13;12.70;;;22.80;71.20;;;;;;5091957;28;20202;-79
2021/07/11 02:14:57;;;;;;;13.88;12.50;;;22.80;71.10;;;;;;5092957;28;20198;-79
2021/07/11 02:17:24;;;;;;;14.63;13.13;;;22.80;71.10;;;;;;5092036;28;20252;-78
2021/07/11 02:19:50;;;;;;;13.18;11.88;;;22.80;71.20;;;;;;5093110;28;20145;-78
2021/07/11 02:22:16;;;;;;;13.95;12.55;;;22.80;71.10;;;;;;5091627;28;20193;-79
2021/07/11 02:24:43;;;;;;;14.27;12.77;;;22.80;71.20;;;;;;5092884;28;20159;-79
2021/07/11 02:27:09;;;;;;;13.32;12.02;;;22.80;71.20;;;;;;5091709;28;20160;-78
2021/07/11 02:29:39;;;;;;;13.85;12.43;;;22.80;71.20;;;;;;5094887;28;20157;-79
2021/07/11 02:32:06;;;;;;;13.55;12.07;;;22.80;71.20;;;;;;5095822;28;20161;-79
2021/07/11 02:34:31;;;;;;;13.65;12.35;;;22.80;71.20;;;;;;5096859;28;20160;-79
2021/07/11 02:36:57;;;;;;;13.95;12.55;;;22.80;71.20;;;;;;5096560;28;20164;-79
2021/07/11 02:39:23;;;;;;;13.45;12.07;;;22.80;71.30;;;;;;5096495;28;20156;-79
2021/07/11 02:41:54;;;;;;;13.30;11.95;;;22.80;71.20;;;;;;5095097;28;20309;-78
2021/07/11 02:44:20;;;;;;;13.82;12.43;;;22.80;71.20;;;;;;5096582;28;20160;-79
2021/07/11 02:46:48;;;;;;;13.90;12.50;;;22.80;71.20;;;;;;5096534;28;20201;-79
2021/07/11 02:49:16;;;;;;;14.50;13.02;;;22.80;71.20;;;;;;5096286;28;20153;-79
2021/07/11 02:51:43;;;;;;;13.82;12.43;;;22.80;71.20;;;;;;5096215;28;20149;-79
2021/07/11 02:54:09;;;;;;;14.02;12.63;;;22.80;71.20;;;;;;5095212;28;20598;-80
2021/07/11 02:56:38;;;;;;;13.00;11.77;;;22.80;71.20;;;;;;5077845;28;20228;-79
2021/07/11 02:59:03;;;;;;;14.23;12.73;;;22.80;71.30;;;;;;5095274;28;20161;-78
2021/07/11 03:01:29;;;;;;;13.00;11.70;;;22.80;71.30;;;;;;5095960;28;20234;-79
2021/07/11 03:03:56;;;;;;;13.48;12.15;;;22.70;71.30;;;;;;5095997;28;20145;-78
2021/07/11 03:06:21;;;;;;;13.23;11.93;;;22.80;71.30;;;;;;5096090;28;20275;-78
2021/07/11 03:08:47;;;;;;;13.75;12.45;;;22.80;71.30;;;;;;5096256;28;20239;-78
2021/07/11 03:11:13;;;;;;;12.98;11.68;;;22.80;71.30;;;;;;5095716;28;20240;-79
2021/07/11 03:13:39;;;;;;;14.13;12.63;;;22.80;71.30;;;;;;5096116;28;20164;-79
2021/07/11 03:16:04;;;;;;;13.82;12.48;;;22.80;71.30;;;;;;5095709;28;20157;-77
2021/07/11 03:18:30;;;;;;;13.25;11.88;;;22.80;71.30;;;;;;5096093;28;20557;-78
2021/07/11 03:20:57;;;;;;;13.63;12.23;;;22.80;72.10;;;;;;5094686;28;20193;-79
2021/07/11 03:23:25;;;;;;;13.85;12.45;;;22.80;71.20;;;;;;5093824;28;20263;-79
2021/07/11 03:25:53;;;;;;;14.48;12.98;;;22.80;71.20;;;;;;5093985;28;20185;-79
2021/07/11 03:28:20;;;;;;;12.85;11.55;;;22.80;71.20;;;;;;5076712;28;20639;-79
2021/07/11 03:30:49;;;;;;;13.73;12.32;;;22.80;71.20;;;;;;5076784;28;20183;-78
2021/07/11 03:33:15;;;;;;;13.82;12.43;;;22.80;71.20;;;;;;5094441;28;20157;-78
2021/07/11 03:35:46;;;;;;;13.85;12.45;;;22.80;71.30;;;;;;5076532;28;20589;-79
2021/07/11 03:38:15;;;;;;;13.75;12.35;;;22.80;71.30;;;;;;5060440;28;20259;-79
2021/07/11 03:40:42;;;;;;;13.02;11.80;;;22.80;71.30;;;;;;5094163;28;20565;-79
2021/07/11 03:43:09;;;;;;;13.07;11.77;;;22.80;71.30;;;;;;5094110;28;20145;-79
2021/07/11 03:45:36;;;;;;;12.73;11.52;;;22.80;71.30;;;;;;5094019;28;20240;-78
2021/07/11 03:48:06;;;;;;;13.07;11.77;;;22.80;71.30;;;;;;5093967;28;20150;-78
2021/07/11 03:50:32;;;;;;;12.95;11.63;;;22.80;71.20;;;;;;5111498;27;20798;-79
2021/07/11 03:53:04;;;;;;;13.48;12.10;;;22.70;71.30;;;;;;5094205;28;20167;-78
2021/07/11 03:55:30;;;;;;;13.80;12.32;;;22.70;71.30;;;;;;5093669;28;20227;-79
2021/07/11 03:57:55;;;;;;;12.40;11.18;;;22.80;71.30;;;;;;5095028;28;20284;-79
2021/07/11 04:00:21;;;;;;;13.02;11.73;;;22.80;71.30;;;;;;5094931;28;20176;-78
2021/07/11 04:02:48;;;;;;;13.48;12.18;;;22.70;71.30;;;;;;5094780;28;20622;-79
2021/07/11 04:05:16;;;;;;;14.18;12.68;;;22.70;71.30;;;;;;5094790;28;20157;-79
2021/07/11 04:07:43;;;;;;;12.85;11.50;;;22.80;71.30;;;;;;5077143;28;20177;-79
2021/07/11 04:10:11;;;;;;;12.90;11.60;;;22.80;71.30;;;;;;5094742;28;20148;-78
2021/07/11 04:12:37;;;;;;;13.00;11.70;;;22.70;71.20;;;;;;5093567;28;20153;-78
2021/07/11 04:15:03;;;;;;;13.02;11.63;;;22.70;71.20;;;;;;5093439;28;20206;-79
2021/07/11 04:17:29;;;;;;;13.40;12.00;;;22.70;71.30;;;;;;5093402;28;20156;-78
2021/07/11 04:19:56;;;;;;;13.23;11.82;;;22.80;71.20;;;;;;5094771;28;20179;-78
2021/07/11 04:22:22;;;;;;;12.30;11.10;;;22.70;71.20;;;;;;5093239;28;20692;-79
2021/07/11 04:24:47;;;;;;;12.90;11.60;;;22.70;71.30;;;;;;5093319;28;20248;-78
2021/07/11 04:27:13;;;;;;;12.38;11.07;;;22.70;71.20;;;;;;5094764;28;20188;-78
2021/07/11 04:29:40;;;;;;;13.30;11.98;;;22.70;71.30;;;;;;5094286;28;20145;-78
2021/07/11 04:32:06;;;;;;;13.57;12.18;;;22.70;71.30;;;;;;5094325;28;20164;-79
2021/07/11 04:34:34;;;;;;;12.90;11.60;;;22.70;71.30;;;;;;5094274;28;20164;-79
2021/07/11 04:37:01;;;;;;;13.38;11.98;;;22.70;71.30;;;;;;5093222;28;20160;-79
2021/07/11 04:39:27;;;;;;;13.10;11.80;;;22.70;71.40;;;;;;5076067;28;20541;-78
2021/07/11 04:41:53;;;;;;;12.63;11.35;;;22.70;71.40;;;;;;5094022;28;20189;-78
2021/07/11 04:44:19;;;;;;;13.40;12.10;;;22.70;71.40;;;;;;5092991;28;20262;-79
2021/07/11 04:46:46;;;;;;;13.13;11.82;;;22.70;71.40;;;;;;5109985;28;20177;-79
2021/07/11 04:49:12;;;;;;;13.10;11.80;;;22.70;71.50;;;;;;5093994;28;20520;-78
2021/07/11 04:51:38;;;;;;;12.93;11.63;;;22.70;71.50;;;;;;5075866;28;20176;-79
2021/07/11 04:54:05;;;;;;;12.82;11.52;;;22.70;71.40;;;;;;5092764;28;20153;-78
2021/07/11 04:56:31;;;;;;;14.05;12.65;;;22.70;71.50;;;;;;5093763;28;20737;-78
2021/07/11 04:58:57;;;;;;;13.10;11.80;;;22.70;71.50;;;;;;5093951;28;20164;-78
2021/07/11 05:01:25;;;;;;;13.38;12.05;;;22.70;71.40;;;;;;5092806;28;20200;-78
2021/07/11 05:03:51;;;;;;;13.48;12.07;;;22.70;71.60;;;;;;5092594;28;20196;-79
2021/07/11 05:06:17;;;;;;;13.77;12.45;;;22.70;72.30;;;;;;5109865;28;20164;-79
2021/07/11 05:08:42;;;;;;;13.57;12.18;;;22.70;71.50;;;;;;5092739;28;20599;-78
2021/07/11 05:11:08;;;;;;;13.85;12.45;;;22.70;71.60;;;;;;5093758;28;20165;-79
2021/07/11 05:13:34;;;;;;;14.00;12.60;;;22.70;71.60;;;;;;5092716;28;20607;-78
2021/07/11 05:15:59;;;;;;;12.93;11.63;;;22.70;71.60;;;;;;5093596;28;20176;-79
2021/07/11 05:18:25;;;;;;;13.82;12.43;;;22.70;71.60;;;;;;5093735;28;20149;-79
2021/07/11 05:20:51;;;;;;;12.82;11.63;;;22.70;71.50;;;;;;5093691;28;20163;-78
2021/07/11 05:23:16;;;;;;;13.05;11.75;;;22.70;71.50;;;;;;5093449;28;20180;-79
2021/07/11 05:25:43;;;;;;;12.13;10.93;;;22.70;71.60;;;;;;5093749;28;20239;-78
2021/07/11 05:28:10;;;;;;;13.13;11.82;;;22.70;71.60;;;;;;5074408;28;20173;-79
2021/07/11 05:30:37;;;;;;;13.25;11.85;;;22.70;71.60;;;;;;5091238;28;20195;-78
2021/07/11 05:33:04;;;;;;;12.73;11.43;;;22.70;71.70;;;;;;5091142;28;20272;-78
2021/07/11 05:35:30;;;;;;;12.93;11.63;;;22.70;71.70;;;;;;5074612;28;20184;-79
2021/07/11 05:37:55;;;;;;;13.35;11.98;;;22.70;71.60;;;;;;5092173;28;20512;-78
2021/07/11 05:40:21;;;;;;;13.60;12.20;;;22.70;71.60;;;;;;5092079;28;20144;-79
2021/07/11 05:42:49;;;;;;;13.20;11.80;;;22.70;71.60;;;;;;5092045;28;20192;-78
2021/07/11 05:45:16;;;;;;;12.88;11.60;;;22.70;71.70;;;;;;5091317;28;20200;-77
2021/07/11 05:47:43;;;;;;;13.23;11.93;;;22.70;71.60;;;;;;5092074;28;20153;-78
2021/07/11 05:50:10;;;;;;;13.05;11.75;;;22.60;71.60;;;;;;5074712;28;20176;-79
2021/07/11 05:52:35;;;;;;;12.68;11.40;;;22.70;71.60;;;;;;5108978;28;20156;-78
2021/07/11 05:55:02;;;;;;;13.10;11.80;;;22.70;71.50;;;;;;5091941;28;20311;-79
2021/07/11 05:57:28;;;;;;;13.38;11.98;;;22.70;71.60;;;;;;5093343;28;20623;-79
2021/07/11 05:59:54;;;;;;;13.45;12.05;;;22.70;71.60;;;;;;5093034;28;20153;-79
2021/07/11 06:02:20;;;;;;;12.88;11.57;;;22.70;71.70;;;;;;5093081;28;20195;-78
2021/07/11 06:04:47;;;;;;;13.30;11.90;;;22.70;71.70;;;;;;5095972;28;20153;-79
2021/07/11 06:07:13;;;;;;;12.95;11.65;;;22.70;71.60;;;;;;5077976;28;20185;-78
2021/07/11 06:09:39;;;;;;;13.10;11.80;;;22.70;71.60;;;;;;5097147;28;20196;-79
2021/07/11 06:12:05;;;;;;;13.13;11.82;;;22.70;71.60;;;;;;5078880;28;20251;-77
2021/07/11 06:14:30;;;;;;;13.30;11.90;;;22.70;71.60;;;;;;5096998;28;20157;-78
2021/07/11 06:16:57;;;;;;;12.35;11.13;;;22.70;71.60;;;;;;5096945;28;20157;-77
2021/07/11 06:19:23;;;;;;;12.55;11.27;;;22.70;71.50;;;;;;5096769;28;20160;-78
2021/07/11 06:21:50;;;;;;;13.18;11.77;;;22.70;71.60;;;;;;5096867;28;20189;-79
2021/07/11 06:24:16;;;;;;;12.18;10.98;;;22.70;71.50;;;;;;5096848;28;20149;-79
2021/07/11 06:26:42;;;;;;;12.48;11.18;;;22.70;71.50;;;;;;5095626;28;20153;-79
2021/07/11 06:29:08;;;;;;;12.63;11.32;;;22.70;71.60;;;;;;5097363;28;20218;-78
2021/07/11 06:31:34;;;;;;;13.45;12.15;;;22.70;71.60;;;;;;5096573;28;20612;-78
2021/07/11 06:34:00;;;;;;;12.60;11.32;;;22.70;71.60;;;;;;5095430;28;20164;-79
2021/07/11 06:36:26;;;;;;;12.23;11.02;;;22.70;71.60;;;;;;5095524;28;20277;-77
2021/07/11 06:38:52;;;;;;;12.40;11.10;;;22.70;71.60;;;;;;5095378;28;20152;-78
2021/07/11 06:41:18;;;;;;;13.13;11.57;;;22.70;71.60;;;;;;5096492;28;20680;-79
2021/07/11 06:43:44;;;;;;;12.57;11.38;;;22.70;71.60;;;;;;5095320;28;20157;-78
2021/07/11 06:46:09;;;;;;;13.07;11.80;;;22.70;71.60;;;;;;5096422;28;20630;-78
2021/07/11 06:48:36;;;;;;;13.15;11.63;;;22.70;71.60;;;;;;5095243;28;20148;-77
2021/07/11 06:51:02;;;;;;;12.35;11.15;;;22.70;71.60;;;;;;5095167;28;20232;-78
2021/07/11 06:53:28;;;;;;;12.18;10.98;;;22.70;71.40;;;;;;5095102;28;20691;-79
2021/07/11 06:55:53;;;;;;;12.00;10.85;;;22.70;71.40;;;;;;5111851;28;20228;-79
2021/07/11 06:58:19;;;;;;;13.07;11.65;;;22.70;71.50;;;;;;5096154;28;20183;-78
2021/07/11 07:00:45;;;;;;;12.13;10.93;;;22.70;71.50;;;;;;5111892;28;20224;-79
2021/07/11 07:03:10;;;;;;;12.43;11.23;;;22.70;71.40;;;;;;5094962;28;20650;-78
2021/07/11 07:05:36;;;;;;;12.60;11.32;;;22.70;71.30;;;;;;5095949;28;20638;-78
2021/07/11 07:08:03;;;;;;;12.55;11.35;;;22.70;71.30;;;;;;5095943;28;20643;-79
2021/07/11 07:10:28;;;;;;;13.00;11.70;;;22.70;71.40;;;;;;5095956;28;20149;-78
2021/07/11 07:12:54;;;;;;;13.18;11.85;;;22.70;71.30;;;;;;5096326;28;20668;-78
2021/07/11 07:15:20;;;;;;;12.35;11.15;;;22.70;71.30;;;;;;5095995;28;20157;-79
2021/07/11 07:17:45;;;;;;;13.13;11.75;;;22.70;71.30;;;;;;5095989;28;20153;-79
2021/07/11 07:20:12;;;;;;;12.85;11.55;;;22.70;71.20;;;;;;5096006;28;20145;-79
2021/07/11 07:22:37;;;;;;;12.40;11.10;;;22.70;71.00;;;;;;5095972;28;20197;-78
2021/07/11 07:25:05;;;;;;;12.43;11.13;;;22.80;71.20;;;;;;5111400;28;20213;-78
2021/07/11 07:27:30;;;;;;;12.02;10.80;;;22.70;71.10;;;;;;5095933;28;20499;-78
2021/07/11 07:29:56;;;;;;;12.93;11.63;;;22.70;71.20;;;;;;5095525;28;20627;-78
2021/07/11 07:32:22;;;;;;;12.32;11.02;;;22.70;71.20;;;;;;5094515;28;20557;-78
2021/07/11 07:34:47;;;;;;;12.57;11.38;;;22.80;71.20;;;;;;5095523;28;20237;-78
2021/07/11 07:37:13;;;;;;;12.65;11.43;;;22.70;71.20;;;;;;5094282;28;20228;-79
2021/07/11 07:39:39;;;;;;;12.60;11.20;;;22.80;71.10;;;;;;5095439;28;20157;-78
2021/07/11 07:42:05;;;;;;;12.48;11.18;;;22.80;70.90;;;;;;5094077;28;20185;-77
2021/07/11 07:44:31;;;;;;;12.35;11.07;;;22.90;70.70;;;;;;5094324;28;20210;-79
2021/07/11 07:46:57;;;;;;;12.35;11.15;;;22.90;70.60;;;;;;5095538;28;20153;-78
2021/07/11 07:49:23;;;;;;;12.88;11.57;;;22.90;70.80;;;;;;5093858;28;20703;-79
2021/07/11 07:51:49;;;;;;;13.48;12.07;;;22.90;70.80;;;;;;5093961;28;20240;-78
2021/07/11 07:54:14;;;;;;;13.18;11.88;;;22.90;70.70;;;;;;5093975;28;20518;-78
2021/07/11 07:56:40;;;;;;;13.30;12.00;;;22.90;70.50;;;;;;5093572;28;20736;-78
2021/07/11 07:59:05;;;;;;;12.98;11.68;;;22.90;70.50;;;;;;5095009;28;20628;-78
2021/07/11 08:01:31;;;;;;;12.57;11.35;;;22.80;70.40;;;;;;5094855;28;20235;-78
2021/07/11 08:03:57;;;;;;;12.88;11.57;;;22.90;70.30;;;;;;5094855;28;20499;-78
2021/07/11 08:06:23;;;;;;;12.57;11.38;;;23.00;70.00;;;;;;5094891;28;20179;-78
2021/07/11 08:08:48;;;;;;;13.20;11.90;;;23.00;70.00;;;;;;5094807;28;20194;-78
2021/07/11 08:11:14;;;;;;;12.38;11.18;;;23.00;70.00;;;;;;5094688;28;20153;-78
2021/07/11 08:13:39;;;;;;;12.30;11.10;;;23.00;70.00;;;;;;5094728;28;20576;-79
2021/07/11 08:16:06;;;;;;;12.95;11.60;;;23.00;69.90;;;;;;5094542;28;20663;-78
2021/07/11 08:18:33;;;;;;;12.90;11.60;;;23.00;69.90;;;;;;5093411;28;20691;-78
2021/07/11 08:21:01;;;;;;;12.32;11.00;;;23.00;69.80;;;;;;5092538;28;20180;-78
2021/07/11 08:23:28;;;;;;;12.52;11.32;;;23.10;69.80;;;;;;5092755;28;20176;-78
2021/07/11 08:25:56;;;;;;;12.50;11.27;;;23.00;69.70;;;;;;5075907;28;20185;-78
2021/07/11 08:28:21;;;;;;;12.48;11.27;;;23.10;69.80;;;;;;5092146;28;20200;-78
2021/07/11 08:30:47;;;;;;;13.45;12.05;;;23.00;69.70;;;;;;5094362;28;20188;-78
2021/07/11 08:33:12;;;;;;;12.98;11.38;;;23.10;69.60;;;;;;5093237;28;20252;-78
2021/07/11 08:35:38;;;;;;;12.25;11.05;;;23.10;69.60;;;;;;5110123;28;20582;-79
2021/07/11 08:38:04;;;;;;;12.85;11.55;;;23.10;69.60;;;;;;5093165;28;20160;-78
2021/07/11 08:40:32;;;;;;;12.88;11.57;;;23.10;69.60;;;;;;5093054;28;20183;-78
2021/07/11 08:42:58;;;;;;;12.10;10.90;;;23.10;69.70;;;;;;5076025;28;20204;-78
2021/07/11 08:45:23;;;;;;;12.88;11.55;;;23.10;69.60;;;;;;5094147;28;20202;-79
2021/07/11 08:47:49;;;;;;;12.65;11.40;;;23.00;69.60;;;;;;5092754;28;20523;-78
2021/07/11 08:50:17;;;;;;;12.77;11.57;;;23.10;69.60;;;;;;5094043;28;20230;-79
2021/07/11 08:52:47;;;;;;;11.95;10.75;;;23.10;69.50;;;;;;5092316;28;20287;-78
2021/07/11 08:55:16;;;;;;;13.55;12.10;;;23.10;69.40;;;;;;5075119;28;20228;-79
2021/07/11 08:57:49;;;;;;;12.25;11.05;;;23.10;69.20;;;;;;5110447;28;20635;-78
2021/07/11 09:00:17;;;;;;;12.82;11.52;;;23.10;69.40;;;;;;5076141;28;20177;-79
2021/07/11 09:02:45;;;;;;;12.55;11.27;;;23.00;69.50;;;;;;5058783;28;20635;-79
2021/07/11 09:05:29;;;;;;;11.88;10.68;;;23.10;69.50;;;;;;5091989;28;20177;-78
2021/07/11 09:08:00;;;;;;;12.73;11.50;;;23.10;69.50;;;;;;5042169;28;20308;-77
2021/07/11 09:10:29;;;;;;;12.90;11.70;;;23.10;69.40;;;;;;5093742;28;20149;-78
2021/07/11 09:12:54;;;;;;;12.73;11.43;;;23.10;69.40;;;;;;5093728;28;20156;-79
2021/07/11 09:15:35;;;;;;;12.35;11.15;;;23.10;69.40;;;;;;5093882;28;20259;-78
2021/07/11 09:18:02;;;;;;;12.80;11.50;;;23.10;69.50;;;;;;5109416;27;20623;-78
2021/07/11 09:20:28;;;;;;;12.65;11.45;;;23.10;69.50;;;;;;5109473;28;20283;-78
2021/07/11 09:23:01;;;;;;;12.85;11.55;;;23.10;69.40;;;;;;5109358;28;20271;-78
2021/07/11 09:25:27;;;;;;;13.32;11.93;;;23.10;69.40;;;;;;5109976;28;20155;-78
2021/07/11 09:27:53;;;;;;;12.93;11.55;;;23.10;69.40;;;;;;5092316;28;20156;-79
2021/07/11 09:30:18;;;;;;;12.43;11.23;;;23.10;69.40;;;;;;5093729;28;20186;-79
2021/07/11 09:32:44;;;;;;;13.07;11.77;;;23.10;69.40;;;;;;5093387;28;20160;-78
2021/07/11 09:35:19;;;;;;;12.20;11.00;;;23.10;69.50;;;;;;5092292;28;20740;-79
2021/07/11 09:37:48;;;;;;;12.23;11.02;;;23.10;69.30;;;;;;5091940;28;20149;-79
2021/07/11 09:40:15;;;;;;;12.75;11.55;;;23.10;69.00;;;;;;5092845;28;20180;-78
2021/07/11 09:42:42;;;;;;;13.38;12.07;;;23.10;69.10;;;;;;5092135;28;20188;-79
2021/07/11 09:45:24;;;;;;;13.07;11.77;;;23.10;69.10;;;;;;5093194;28;20608;-78
2021/07/11 09:47:56;;;;;;;12.65;11.35;;;23.10;69.40;;;;;;5093280;28;20232;-78
2021/07/11 09:50:24;;;;;;;12.02;10.82;;;23.10;69.40;;;;;;5075019;28;20180;-78
2021/07/11 09:52:53;;;;;;;12.27;11.07;;;23.10;69.40;;;;;;5058000;28;20195;-79
2021/07/11 09:55:23;;;;;;;11.80;10.70;;;23.10;69.20;;;;;;5057758;28;20590;-79
2021/07/11 09:57:53;;;;;;;12.35;11.15;;;23.10;69.10;;;;;;5074334;28;20176;-79
2021/07/11 10:00:23;;;;;;;12.02;10.82;;;23.10;69.10;;;;;;5093196;28;20180;-78
2021/07/11 10:02:51;;;;;;;12.25;11.05;;;23.20;69.00;;;;;;5091908;28;20188;-79
2021/07/11 10:05:17;;;;;;;12.07;10.77;;;23.20;68.90;;;;;;5093039;28;20156;-78
2021/07/11 10:07:43;;;;;;;12.40;11.20;;;23.10;69.00;;;;;;5109023;28;20355;-79
2021/07/11 10:10:10;;;;;;;12.98;11.68;;;23.20;69.00;;;;;;5108940;28;20180;-79
2021/07/11 10:12:36;;;;;;;11.95;10.75;;;23.20;68.90;;;;;;5093069;28;20155;-79
2021/07/11 10:15:03;;;;;;;12.43;11.13;;;23.20;68.80;;;;;;5091738;28;20184;-79
2021/07/11 10:17:29;;;;;;;12.88;11.63;;;23.20;68.80;;;;;;5091856;28;20228;-78
2021/07/11 10:19:55;;;;;;;12.30;11.10;;;23.10;68.90;;;;;;5093054;28;20333;-78
2021/07/11 10:22:20;;;;;;;12.70;11.40;;;23.20;68.80;;;;;;5092849;28;20197;-78
2021/07/11 10:24:48;;;;;;;11.88;10.77;;;23.20;69.00;;;;;;5092904;28;20164;-80
2021/07/11 10:27:30;;;;;;;12.38;11.07;;;23.10;69.10;;;;;;5093564;28;20157;-79
2021/07/11 10:29:57;;;;;;;12.10;10.82;;;23.10;69.10;;;;;;5073971;28;20180;-79
2021/07/11 10:32:30;;;;;;;12.95;11.65;;;23.20;69.00;;;;;;5074262;28;20188;-78
2021/07/11 10:35:16;;;;;;;13.30;11.93;;;23.20;69.10;;;;;;5058441;28;20181;-79
2021/07/11 10:37:47;;;;;;;12.90;11.60;;;23.10;69.00;;;;;;5093008;28;20629;-79
2021/07/11 10:40:17;;;;;;;12.30;11.10;;;23.10;69.00;;;;;;5092782;28;20152;-79
2021/07/11 10:42:43;;;;;;;12.05;10.85;;;23.10;69.00;;;;;;5091384;28;20268;-79
2021/07/11 10:45:11;;;;;;;12.55;11.35;;;23.10;69.10;;;;;;5091485;28;20157;-78
2021/07/11 10:47:37;;;;;;;11.95;10.75;;;23.10;69.00;;;;;;5092757;28;20156;-78
2021/07/11 10:50:07;;;;;;;11.57;10.45;;;23.20;68.90;;;;;;5094028;28;20576;-79
2021/07/11 10:52:36;;;;;;;12.95;11.68;;;23.20;68.70;;;;;;5095047;28;20149;-78
2021/07/11 10:55:04;;;;;;;13.07;11.77;;;23.10;68.90;;;;;;5096050;28;20690;-79
2021/07/11 10:57:36;;;;;;;13.10;11.80;;;23.10;69.00;;;;;;5096527;28;20160;-79
2021/07/11 11:00:30;;;;;;;13.35;11.95;;;23.00;68.90;;;;;;5061717;28;20177;-79
2021/07/11 11:02:56;;;;;;;12.52;11.32;;;23.00;68.40;;;;;;5096076;28;20184;-78
2021/07/11 11:05:23;;;;;;;12.25;11.05;;;23.00;68.90;;;;;;5096168;28;20181;-78
2021/07/11 11:07:53;;;;;;;13.25;11.90;;;23.00;69.00;;;;;;5096395;28;20161;-79
2021/07/11 11:10:21;;;;;;;11.68;10.50;;;23.00;68.30;;;;;;5095998;28;20476;-78
2021/07/11 11:12:58;;;;;;;12.65;11.35;;;23.00;68.50;;;;;;5094680;28;20157;-79
2021/07/11 11:15:32;;;;;;;13.70;12.10;;;23.00;69.10;;;;;;5094512;28;20160;-79
2021/07/11 11:17:57;;;;;;;12.10;10.77;;;23.00;69.20;;;;;;5094888;28;20152;-80
2021/07/11 11:20:23;;;;;;;12.60;11.35;;;23.00;68.90;;;;;;5111414;27;20157;-78
2021/07/11 11:22:51;;;;;;;12.80;11.60;;;23.00;68.80;;;;;;5093297;28;20550;-78
2021/07/11 11:25:19;;;;;;;11.90;10.70;;;23.00;68.90;;;;;;5095732;28;20164;-80
2021/07/11 11:27:48;;;;;;;11.85;10.65;;;23.00;68.30;;;;;;5095146;28;20209;-84
2021/07/11 11:30:18;;;;;;;12.40;10.75;;;23.10;68.10;;;;;;5095472;28;20187;-86
2021/07/11 11:32:53;;;;;;;12.60;11.40;;;23.10;67.80;;;;;;5093873;28;20565;-87
2021/07/11 11:35:20;;;;;;;12.27;11.07;;;23.00;67.70;;;;;;5077066;28;20164;-85
2021/07/11 11:37:50;;;;;;;12.45;11.25;;;23.20;67.20;;;;;;5094426;28;20639;-84
2021/07/11 11:40:17;;;;;;;12.60;11.30;;;23.20;67.40;;;;;;5095899;28;20153;-81
2021/07/11 11:42:45;;;;;;;10.98;9.85;;;23.20;67.60;;;;;;5122670;28;20773;-79
2021/07/11 11:45:19;;;;;;;12.48;11.27;;;23.10;67.70;;;;;;5106432;28;20155;-79
2021/07/11 11:47:45;;;;;;;11.27;10.18;;;23.20;67.90;;;;;;5072115;28;20686;-80
2021/07/11 11:50:16;;;;;;;10.68;9.40;;;23.20;66.50;;;;;;5106008;28;20152;-80
2021/07/11 11:52:43;;;;;;;11.57;10.32;;;23.20;66.60;;;;;;5089422;28;20217;-80
2021/07/11 11:55:09;;;;;;;11.85;10.65;;;23.20;66.30;;;;;;5122796;28;20240;-80
2021/07/11 11:57:37;;;;;;;12.85;11.55;;;23.20;67.50;;;;;;5106809;28;20179;-80
2021/07/11 12:00:06;;;;;;;11.70;10.60;;;23.20;67.60;;;;;;5123069;27;20153;-80
2021/07/11 12:02:32;;;;;;;13.00;11.70;;;23.20;66.20;;;;;;5122150;27;20180;-80
2021/07/11 12:05:09;;;;;;;13.43;11.82;;;23.10;67.40;;;;;;5089179;28;20168;-80
2021/07/11 12:07:35;;;;;;;12.73;11.43;;;23.20;67.90;;;;;;5122090;28;20215;-80
2021/07/11 12:10:02;;;;;;;12.85;11.50;;;23.20;67.40;;;;;;5088587;28;20161;-80
2021/07/11 12:12:28;;;;;;;10.15;9.15;;;23.20;66.60;;;;;;5123417;28;20607;-81
2021/07/11 12:14:59;;;;;;;13.02;11.73;;;23.20;66.40;;;;;;5089038;28;20156;-79
2021/07/11 12:17:31;;;;;;;12.88;11.30;;;23.20;67.00;;;;;;5089608;28;20175;-80
2021/07/11 12:19:57;;;;;;;13.38;11.18;;;23.10;67.00;;;;;;5123002;28;20242;-80
2021/07/11 12:22:27;;;;;;;11.93;10.82;;;23.20;67.20;;;;;;5123165;28;20280;-80
2021/07/11 12:25:12;;;;;;;12.73;11.48;;;23.10;67.20;;;;;;5105920;28;20187;-80
2021/07/11 12:27:43;;;;;;;12.88;11.57;;;23.20;67.20;;;;;;5056915;28;20177;-80
2021/07/11 12:30:18;;;;;;;12.77;11.50;;;23.20;67.20;;;;;;5071929;28;20176;-80